sensor_id;sensor_type;location;lat;lon;timestamp;P1;durP1;ratioP1;P2;durP2;ratioP2
53939;SDS011;39850;43.324;21.916;2022-11-20T00:00:12;32.0;;;34.0;;
53939;SDS011;39850;43.324;21.916;2022-11-20T00:04:51;32.0;;;34.0;;
53939;SDS011;39850;43.324;21.916;2022-11-20T00:09:28;32.0;;;34.0;;
53939;SDS011;39850;43.324;21.916;2022-11-20T00:14:05;33.0;;;35.0;;
53939;SDS011;39850;43.324;21.916;2022-11-20T00:18:42;33.0;;;35.0;;
53939;SDS011;39850;43.324;21.916;2022-11-20T00:51:06;33.0;;;35.0;;
53939;SDS011;39850;43.324;21.916;2022-11-20T00:55:42;33.0;;;35.0;;
53939;SDS011;39850;43.324;21.916;2022-11-20T01:00:19;33.0;;;35.0;;
53939;SDS011;39850;43.324;21.916;2022-11-20T01:04:55;36.0;;;38.0;;
53939;SDS011;39850;43.324;21.916;2022-11-20T01:09:32;36.0;;;38.0;;
53939;SDS011;39850;43.324;21.916;2022-11-20T01:14:19;38.0;;;40.0;;
53939;SDS011;39850;43.324;21.916;2022-11-20T01:19:04;38.0;;;40.0;;
53939;SDS011;39850;43.324;21.916;2022-11-20T01:23:50;42.0;;;44.0;;
53939;SDS011;39850;43.324;21.916;2022-11-20T01:28:31;42.0;;;44.0;;
53939;SDS011;39850;43.324;21.916;2022-11-20T01:33:09;47.0;;;48.0;;
53939;SDS011;39850;43.324;21.916;2022-11-20T01:37:45;47.0;;;48.0;;
53939;SDS011;39850;43.324;21.916;2022-11-20T02:11:07;29.0;;;30.0;;
53939;SDS011;39850;43.324;21.916;2022-11-20T02:15:46;29.0;;;30.0;;
53939;SDS011;39850;43.324;21.916;2022-11-20T02:20:24;29.0;;;30.0;;
53939;SDS011;39850;43.324;21.916;2022-11-20T02:25:07;29.0;;;30.0;;
53939;SDS011;39850;43.324;21.916;2022-11-20T02:30:02;29.0;;;30.0;;
53939;SDS011;39850;43.324;21.916;2022-11-20T02:34:41;29.0;;;30.0;;
53939;SDS011;39850;43.324;21.916;2022-11-20T02:39:25;29.0;;;30.0;;
53939;SDS011;39850;43.324;21.916;2022-11-20T02:44:06;30.0;;;31.0;;
53939;SDS011;39850;43.324;21.916;2022-11-20T02:48:42;30.0;;;31.0;;
53939;SDS011;39850;43.324;21.916;2022-11-20T02:53:19;30.0;;;32.0;;
53939;SDS011;39850;43.324;21.916;2022-11-20T02:57:55;30.0;;;32.0;;
53939;SDS011;39850;43.324;21.916;2022-11-20T03:34:50;27.0;;;29.0;;
53939;SDS011;39850;43.324;21.916;2022-11-20T03:39:27;27.0;;;29.0;;
53939;SDS011;39850;43.324;21.916;2022-11-20T03:44:12;29.0;;;30.0;;
53939;SDS011;39850;43.324;21.916;2022-11-20T03:48:49;29.0;;;30.0;;
53939;SDS011;39850;43.324;21.916;2022-11-20T03:53:27;30.0;;;32.0;;
53939;SDS011;39850;43.324;21.916;2022-11-20T03:58:04;30.0;;;32.0;;
53939;SDS011;39850;43.324;21.916;2022-11-20T04:02:41;30.0;;;32.0;;
53939;SDS011;39850;43.324;21.916;2022-11-20T04:07:17;30.0;;;32.0;;
53939;SDS011;39850;43.324;21.916;2022-11-20T04:11:54;30.0;;;32.0;;
53939;SDS011;39850;43.324;21.916;2022-11-20T04:16:36;30.0;;;32.0;;
53939;SDS011;39850;43.324;21.916;2022-11-20T04:53:33;9.0;;;8.0;;
53939;SDS011;39850;43.324;21.916;2022-11-20T04:58:12;9.0;;;8.0;;
53939;SDS011;39850;43.324;21.916;2022-11-20T05:02:49;8.0;;;8.0;;
53939;SDS011;39850;43.324;21.916;2022-11-20T05:07:26;8.0;;;8.0;;
53939;SDS011;39850;43.324;21.916;2022-11-20T05:12:07;8.0;;;7.0;;
53939;SDS011;39850;43.324;21.916;2022-11-20T05:16:45;8.0;;;7.0;;
53939;SDS011;39850;43.324;21.916;2022-11-20T05:21:23;8.0;;;6.0;;
53939;SDS011;39850;43.324;21.916;2022-11-20T05:26:02;8.0;;;6.0;;
53939;SDS011;39850;43.324;21.916;2022-11-20T05:30:41;8.0;;;6.0;;
53939;SDS011;39850;43.324;21.916;2022-11-20T05:35:18;8.0;;;6.0;;
53939;SDS011;39850;43.324;21.916;2022-11-20T05:39:55;8.0;;;6.0;;
53939;SDS011;39850;43.324;21.916;2022-11-20T06:12:12;9.0;;;7.0;;
53939;SDS011;39850;43.324;21.916;2022-11-20T06:16:49;9.0;;;7.0;;
53939;SDS011;39850;43.324;21.916;2022-11-20T06:21:27;9.0;;;7.0;;
53939;SDS011;39850;43.324;21.916;2022-11-20T06:26:11;9.0;;;7.0;;
53939;SDS011;39850;43.324;21.916;2022-11-20T06:30:52;9.0;;;7.0;;
53939;SDS011;39850;43.324;21.916;2022-11-20T06:35:29;10.0;;;8.0;;
53939;SDS011;39850;43.324;21.916;2022-11-20T06:40:11;10.0;;;8.0;;
53939;SDS011;39850;43.324;21.916;2022-11-20T06:44:48;10.0;;;8.0;;
53939;SDS011;39850;43.324;21.916;2022-11-20T06:49:26;10.0;;;8.0;;
53939;SDS011;39850;43.324;21.916;2022-11-20T06:54:03;10.0;;;8.0;;
53939;SDS011;39850;43.324;21.916;2022-11-20T06:58:41;10.0;;;8.0;;
53939;SDS011;39850;43.324;21.916;2022-11-20T07:44:49;12.0;;;12.0;;
53939;SDS011;39850;43.324;21.916;2022-11-20T07:49:26;12.0;;;12.0;;
53939;SDS011;39850;43.324;21.916;2022-11-20T07:54:04;14.0;;;14.0;;
53939;SDS011;39850;43.324;21.916;2022-11-20T07:58:40;14.0;;;14.0;;
53939;SDS011;39850;43.324;21.916;2022-11-20T08:03:17;14.0;;;14.0;;
53939;SDS011;39850;43.324;21.916;2022-11-20T08:07:53;14.0;;;14.0;;
53939;SDS011;39850;43.324;21.916;2022-11-20T08:12:29;16.0;;;16.0;;
53939;SDS011;39850;43.324;21.916;2022-11-20T08:17:06;16.0;;;16.0;;
53939;SDS011;39850;43.324;21.916;2022-11-20T08:21:44;16.0;;;16.0;;
53939;SDS011;39850;43.324;21.916;2022-11-20T08:54:07;18.0;;;18.0;;
53939;SDS011;39850;43.324;21.916;2022-11-20T08:58:45;18.0;;;18.0;;
53939;SDS011;39850;43.324;21.916;2022-11-20T09:03:22;18.0;;;18.0;;
53939;SDS011;39850;43.324;21.916;2022-11-20T09:08:00;18.0;;;18.0;;
53939;SDS011;39850;43.324;21.916;2022-11-20T09:12:37;18.0;;;18.0;;
53939;SDS011;39850;43.324;21.916;2022-11-20T09:17:13;18.0;;;18.0;;
53939;SDS011;39850;43.324;21.916;2022-11-20T09:21:50;18.0;;;18.0;;
53939;SDS011;39850;43.324;21.916;2022-11-20T09:26:27;18.0;;;18.0;;
53939;SDS011;39850;43.324;21.916;2022-11-20T09:31:09;18.0;;;18.0;;
53939;SDS011;39850;43.324;21.916;2022-11-20T09:35:52;19.0;;;19.0;;
53939;SDS011;39850;43.324;21.916;2022-11-20T09:40:30;19.0;;;19.0;;
53939;SDS011;39850;43.324;21.916;2022-11-20T10:25:19;35.0;;;35.0;;
53939;SDS011;39850;43.324;21.916;2022-11-20T10:30:13;35.0;;;35.0;;
53939;SDS011;39850;43.324;21.916;2022-11-20T10:35:18;32.0;;;32.0;;
53939;SDS011;39850;43.324;21.916;2022-11-20T10:40:32;32.0;;;32.0;;
53939;SDS011;39850;43.324;21.916;2022-11-20T10:45:52;32.0;;;32.0;;
53939;SDS011;39850;43.324;21.916;2022-11-20T10:51:18;32.0;;;32.0;;
53939;SDS011;39850;43.324;21.916;2022-11-20T10:56:35;28.0;;;29.0;;
53939;SDS011;39850;43.324;21.916;2022-11-20T11:01:22;28.0;;;29.0;;
53939;SDS011;39850;43.324;21.916;2022-11-20T11:35:11;53.0;;;49.0;;
53939;SDS011;39850;43.324;21.916;2022-11-20T11:39:57;53.0;;;49.0;;
53939;SDS011;39850;43.324;21.916;2022-11-20T11:44:35;48.0;;;46.0;;
53939;SDS011;39850;43.324;21.916;2022-11-20T11:49:20;48.0;;;46.0;;
53939;SDS011;39850;43.324;21.916;2022-11-20T11:54:15;53.0;;;49.0;;
53939;SDS011;39850;43.324;21.916;2022-11-20T11:59:15;53.0;;;49.0;;
53939;SDS011;39850;43.324;21.916;2022-11-20T12:04:40;56.0;;;54.0;;
53939;SDS011;39850;43.324;21.916;2022-11-20T12:09:53;56.0;;;54.0;;
53939;SDS011;39850;43.324;21.916;2022-11-20T12:14:45;70.0;;;65.0;;
53939;SDS011;39850;43.324;21.916;2022-11-20T12:19:30;70.0;;;65.0;;
53939;SDS011;39850;43.324;21.916;2022-11-20T13:05:37;16.0;;;15.0;;
53939;SDS011;39850;43.324;21.916;2022-11-20T13:10:49;16.0;;;15.0;;
53939;SDS011;39850;43.324;21.916;2022-11-20T13:16:01;16.0;;;14.0;;
53939;SDS011;39850;43.324;21.916;2022-11-20T13:20:47;16.0;;;14.0;;
53939;SDS011;39850;43.324;21.916;2022-11-20T13:25:30;16.0;;;14.0;;
53939;SDS011;39850;43.324;21.916;2022-11-20T13:30:22;16.0;;;14.0;;
53939;SDS011;39850;43.324;21.916;2022-11-20T13:35:08;16.0;;;14.0;;
53939;SDS011;39850;43.324;21.916;2022-11-20T13:39:45;16.0;;;14.0;;
53939;SDS011;39850;43.324;21.916;2022-11-20T14:24:14;39.0;;;36.0;;
53939;SDS011;39850;43.324;21.916;2022-11-20T14:28:56;39.0;;;36.0;;
53939;SDS011;39850;43.324;21.916;2022-11-20T14:33:37;32.0;;;30.0;;
53939;SDS011;39850;43.324;21.916;2022-11-20T14:38:25;32.0;;;30.0;;
53939;SDS011;39850;43.324;21.916;2022-11-20T14:43:26;32.0;;;30.0;;
53939;SDS011;39850;43.324;21.916;2022-11-20T14:48:08;32.0;;;30.0;;
53939;SDS011;39850;43.324;21.916;2022-11-20T14:52:57;32.0;;;30.0;;
53939;SDS011;39850;43.324;21.916;2022-11-20T14:57:37;26.0;;;24.0;;
53939;SDS011;39850;43.324;21.916;2022-11-20T15:02:18;26.0;;;24.0;;
53939;SDS011;39850;43.324;21.916;2022-11-20T15:35:05;12.0;;;10.0;;
53939;SDS011;39850;43.324;21.916;2022-11-20T15:39:42;12.0;;;10.0;;
53939;SDS011;39850;43.324;21.916;2022-11-20T15:44:19;12.0;;;10.0;;
53939;SDS011;39850;43.324;21.916;2022-11-20T15:49:00;12.0;;;10.0;;
53939;SDS011;39850;43.324;21.916;2022-11-20T15:53:38;11.0;;;9.0;;
53939;SDS011;39850;43.324;21.916;2022-11-20T15:58:15;11.0;;;9.0;;
53939;SDS011;39850;43.324;21.916;2022-11-20T16:02:52;11.0;;;9.0;;
53939;SDS011;39850;43.324;21.916;2022-11-20T16:07:29;11.0;;;9.0;;
53939;SDS011;39850;43.324;21.916;2022-11-20T16:12:10;11.0;;;9.0;;
53939;SDS011;39850;43.324;21.916;2022-11-20T16:16:47;11.0;;;9.0;;
53939;SDS011;39850;43.324;21.916;2022-11-20T16:21:24;11.0;;;9.0;;
53939;SDS011;39850;43.324;21.916;2022-11-20T17:07:55;30.0;;;26.0;;
53939;SDS011;39850;43.324;21.916;2022-11-20T17:12:32;30.0;;;26.0;;
53939;SDS011;39850;43.324;21.916;2022-11-20T17:17:09;30.0;;;26.0;;
53939;SDS011;39850;43.324;21.916;2022-11-20T17:21:45;30.0;;;26.0;;
53939;SDS011;39850;43.324;21.916;2022-11-20T17:26:23;30.0;;;26.0;;
53939;SDS011;39850;43.324;21.916;2022-11-20T17:31:04;30.0;;;26.0;;
53939;SDS011;39850;43.324;21.916;2022-11-20T17:35:44;29.0;;;25.0;;
53939;SDS011;39850;43.324;21.916;2022-11-20T17:40:21;29.0;;;25.0;;
53939;SDS011;39850;43.324;21.916;2022-11-20T18:17:15;28.0;;;24.0;;
53939;SDS011;39850;43.324;21.916;2022-11-20T18:21:52;28.0;;;24.0;;
53939;SDS011;39850;43.324;21.916;2022-11-20T18:26:29;28.0;;;24.0;;
53939;SDS011;39850;43.324;21.916;2022-11-20T18:31:09;28.0;;;24.0;;
53939;SDS011;39850;43.324;21.916;2022-11-20T18:35:47;24.0;;;21.0;;
53939;SDS011;39850;43.324;21.916;2022-11-20T18:40:23;24.0;;;21.0;;
53939;SDS011;39850;43.324;21.916;2022-11-20T18:45:01;19.0;;;18.0;;
53939;SDS011;39850;43.324;21.916;2022-11-20T18:49:40;19.0;;;18.0;;
53939;SDS011;39850;43.324;21.916;2022-11-20T18:54:18;19.0;;;18.0;;
53939;SDS011;39850;43.324;21.916;2022-11-20T18:58:57;19.0;;;18.0;;
53939;SDS011;39850;43.324;21.916;2022-11-20T19:03:34;19.0;;;18.0;;
53939;SDS011;39850;43.324;21.916;2022-11-20T19:36:08;10.0;;;9.0;;
53939;SDS011;39850;43.324;21.916;2022-11-20T19:40:45;10.0;;;9.0;;
53939;SDS011;39850;43.324;21.916;2022-11-20T19:45:22;10.0;;;8.0;;
53939;SDS011;39850;43.324;21.916;2022-11-20T19:49:58;10.0;;;8.0;;
53939;SDS011;39850;43.324;21.916;2022-11-20T19:54:36;9.0;;;8.0;;
53939;SDS011;39850;43.324;21.916;2022-11-20T19:59:14;9.0;;;8.0;;
53939;SDS011;39850;43.324;21.916;2022-11-20T20:03:54;9.0;;;8.0;;
53939;SDS011;39850;43.324;21.916;2022-11-20T20:08:33;9.0;;;8.0;;
53939;SDS011;39850;43.324;21.916;2022-11-20T20:13:10;9.0;;;8.0;;
53939;SDS011;39850;43.324;21.916;2022-11-20T20:17:47;9.0;;;7.0;;
53939;SDS011;39850;43.324;21.916;2022-11-20T20:22:23;9.0;;;7.0;;
53939;SDS011;39850;43.324;21.916;2022-11-20T21:08:39;8.0;;;7.0;;
53939;SDS011;39850;43.324;21.916;2022-11-20T21:13:16;8.0;;;7.0;;
53939;SDS011;39850;43.324;21.916;2022-11-20T21:17:53;8.0;;;7.0;;
53939;SDS011;39850;43.324;21.916;2022-11-20T21:22:30;8.0;;;7.0;;
53939;SDS011;39850;43.324;21.916;2022-11-20T21:27:06;8.0;;;7.0;;
53939;SDS011;39850;43.324;21.916;2022-11-20T21:31:44;8.0;;;7.0;;
53939;SDS011;39850;43.324;21.916;2022-11-20T21:36:27;8.0;;;7.0;;
53939;SDS011;39850;43.324;21.916;2022-11-20T21:41:14;8.0;;;7.0;;
53939;SDS011;39850;43.324;21.916;2022-11-20T22:18:11;8.0;;;7.0;;
53939;SDS011;39850;43.324;21.916;2022-11-20T22:22:48;8.0;;;7.0;;
53939;SDS011;39850;43.324;21.916;2022-11-20T22:27:24;8.0;;;7.0;;
53939;SDS011;39850;43.324;21.916;2022-11-20T22:32:00;8.0;;;7.0;;
53939;SDS011;39850;43.324;21.916;2022-11-20T22:36:40;8.0;;;7.0;;
53939;SDS011;39850;43.324;21.916;2022-11-20T22:41:25;8.0;;;7.0;;
53939;SDS011;39850;43.324;21.916;2022-11-20T23:46:15;8.0;;;6.0;;
53939;SDS011;39850;43.324;21.916;2022-11-20T23:50:52;8.0;;;6.0;;
53939;SDS011;39850;43.324;21.916;2022-11-20T23:55:30;8.0;;;6.0;;
